createdAt,value
2019-01-29T00:00:45.175Z,9.10
2019-01-29T00:03:14.200Z,9.30
2019-01-29T00:05:43.276Z,11.40
2019-01-29T00:08:12.388Z,7.93
2019-01-29T00:10:41.497Z,9.23
2019-01-29T00:13:10.558Z,12.77
2019-01-29T00:15:39.694Z,7.57
2019-01-29T00:18:08.815Z,5.63
2019-01-29T00:20:37.757Z,10.57
2019-01-29T00:23:26.006Z,10.13
2019-01-29T00:25:55.088Z,8.07
2019-01-29T00:28:24.159Z,10.50
2019-01-29T00:30:53.185Z,7.10
2019-01-29T00:33:22.171Z,9.27
2019-01-29T00:35:51.163Z,7.53
2019-01-29T00:38:20.268Z,7.03
2019-01-29T00:40:49.300Z,8.57
2019-01-29T00:43:18.293Z,9.60
2019-01-29T00:45:47.403Z,13.43
2019-01-29T00:48:16.623Z,6.73
2019-01-29T00:50:45.639Z,10.43
2019-01-29T00:53:14.698Z,10.93
2019-01-29T00:55:43.800Z,10.30
2019-01-29T00:58:12.907Z,9.73
2019-01-29T01:00:42.087Z,7.63
2019-01-29T01:03:11.182Z,8.90
2019-01-29T01:05:40.282Z,6.50
2019-01-29T01:08:09.524Z,12.90
2019-01-29T01:10:38.468Z,8.93
2019-01-29T01:13:07.580Z,8.00
2019-01-29T01:15:36.478Z,12.30
2019-01-29T01:18:05.536Z,5.87
2019-01-29T01:20:34.639Z,10.07
2019-01-29T01:23:03.716Z,10.20
2019-01-29T01:25:32.805Z,9.77
2019-01-29T01:28:01.847Z,10.50
2019-01-29T01:30:31.041Z,15.20
2019-01-29T01:33:00.058Z,11.03
2019-01-29T01:35:29.202Z,7.53
2019-01-29T01:37:58.355Z,7.43
2019-01-29T01:40:27.445Z,11.90
2019-01-29T01:42:56.467Z,13.53
2019-01-29T01:45:25.482Z,11.23
2019-01-29T01:47:54.494Z,15.07
2019-01-29T01:50:23.546Z,14.67
2019-01-29T01:52:59.182Z,11.70
2019-01-29T01:55:23.395Z,6.20
2019-01-29T01:57:52.404Z,11.53
2019-01-29T02:00:22.050Z,10.30
2019-01-29T02:02:51.194Z,10.23
2019-01-29T02:05:20.279Z,9.50
2019-01-29T02:07:49.279Z,9.27
2019-01-29T02:10:20.872Z,9.37
2019-01-29T02:12:50.245Z,12.67
2019-01-29T02:15:19.298Z,11.33
2019-01-29T02:17:48.468Z,14.13
2019-01-29T02:20:17.541Z,19.07
2019-01-29T02:22:46.639Z,11.07
2019-01-29T02:25:15.799Z,15.43
2019-01-29T02:27:44.875Z,15.90
2019-01-29T02:30:16.484Z,14.30
2019-01-29T02:33:04.694Z,10.00
2019-01-29T02:35:33.726Z,9.93
2019-01-29T02:38:02.797Z,9.53
2019-01-29T02:40:31.815Z,10.40
2019-01-29T02:43:00.825Z,8.50
2019-01-29T02:45:29.824Z,10.33
2019-01-29T02:47:59.002Z,8.97
2019-01-29T02:50:28.176Z,10.57
2019-01-29T02:52:57.307Z,8.87
2019-01-29T02:55:26.333Z,11.30
2019-01-29T02:57:55.422Z,6.83
2019-01-29T03:00:25.822Z,16.17
2019-01-29T03:02:54.770Z,14.40
2019-01-29T03:05:23.782Z,7.13
2019-01-29T03:07:53.118Z,4.50
2019-01-29T03:10:24.200Z,8.40
2019-01-29T03:12:53.145Z,6.93
2019-01-29T03:15:30.130Z,12.70
2019-01-29T03:17:59.393Z,11.63
2019-01-29T03:20:28.428Z,8.23
2019-01-29T03:22:57.390Z,14.07
2019-01-29T03:25:26.393Z,12.20
2019-01-29T03:27:55.440Z,11.20
2019-01-29T03:30:24.834Z,8.60
2019-01-29T03:32:53.940Z,13.17
2019-01-29T03:35:22.932Z,7.37
2019-01-29T03:37:53.187Z,7.20
2019-01-29T03:40:23.981Z,5.43
2019-01-29T03:42:52.911Z,7.77
2019-01-29T03:45:22.125Z,7.63
2019-01-29T03:47:51.292Z,6.30
2019-01-29T03:50:21.222Z,9.37
2019-01-29T03:52:50.355Z,7.53
2019-01-29T03:55:19.357Z,13.07
2019-01-29T03:57:48.437Z,12.90
2019-01-29T04:00:22.549Z,6.10
2019-01-29T04:02:51.563Z,7.13
2019-01-29T04:05:20.537Z,8.47
2019-01-29T04:07:49.603Z,5.53
2019-01-29T04:10:18.613Z,7.53
2019-01-29T04:12:47.730Z,4.53
2019-01-29T04:15:18.207Z,10.93
2019-01-29T04:17:47.371Z,9.73
2019-01-29T04:20:20.371Z,8.37
2019-01-29T04:22:49.668Z,3.80
2019-01-29T04:25:18.759Z,12.27
2019-01-29T04:27:47.777Z,8.33
2019-01-29T04:30:35.964Z,8.53
2019-01-29T04:33:04.979Z,7.03
2019-01-29T04:35:34.077Z,6.27
2019-01-29T04:38:03.256Z,8.07
2019-01-29T04:40:32.315Z,3.90
2019-01-29T04:43:01.372Z,6.80
2019-01-29T04:45:30.562Z,6.07
2019-01-29T04:47:59.488Z,7.87
2019-01-29T04:50:28.506Z,10.93
2019-01-29T04:52:57.548Z,11.13
2019-01-29T04:55:26.656Z,10.37
2019-01-29T04:57:55.704Z,9.40
2019-01-29T05:00:26.854Z,7.07
2019-01-29T05:02:55.964Z,8.40
2019-01-29T05:05:25.050Z,6.13
2019-01-29T05:07:54.198Z,10.47
2019-01-29T05:10:23.134Z,6.27
2019-01-29T05:12:52.172Z,9.97
2019-01-29T05:15:21.453Z,10.10
2019-01-29T05:17:50.533Z,10.90
2019-01-29T05:20:21.209Z,9.27
2019-01-29T05:22:50.264Z,8.43
2019-01-29T05:25:19.734Z,9.77
2019-01-29T05:27:50.034Z,9.03
2019-01-29T05:30:21.268Z,8.53
2019-01-29T05:32:50.377Z,10.97
2019-01-29T05:35:19.448Z,7.50
2019-01-29T05:37:48.739Z,9.37
2019-01-29T05:40:19.103Z,9.10
2019-01-29T05:42:48.258Z,10.90
2019-01-29T05:45:18.417Z,15.03
2019-01-29T05:47:47.495Z,15.27
2019-01-29T05:50:16.502Z,12.87
2019-01-29T05:52:45.517Z,7.97
2019-01-29T05:55:14.541Z,9.80
2019-01-29T05:57:43.607Z,12.37
2019-01-29T06:00:18.156Z,11.67
2019-01-29T06:02:49.532Z,12.40
2019-01-29T06:05:18.614Z,12.37
2019-01-29T06:07:47.723Z,18.27
2019-01-29T06:10:16.828Z,17.13
2019-01-29T06:12:45.836Z,24.07
2019-01-29T06:15:16.490Z,13.07
2019-01-29T06:17:45.546Z,13.70
2019-01-29T06:20:18.427Z,15.47
2019-01-29T06:22:47.910Z,20.77
2019-01-29T06:25:17.767Z,21.17
2019-01-29T06:27:46.875Z,27.63
2019-01-29T06:30:17.096Z,26.80
2019-01-29T06:32:46.156Z,21.30
2019-01-29T06:35:16.048Z,27.47
2019-01-29T06:37:45.280Z,24.30
2019-01-29T06:40:16.638Z,27.40
2019-01-29T06:42:45.659Z,29.27
2019-01-29T06:45:15.522Z,25.60
2019-01-29T06:47:44.564Z,29.93
2019-01-29T06:50:15.723Z,35.17
2019-01-29T06:52:44.766Z,29.60
2019-01-29T06:55:15.866Z,39.13
2019-01-29T06:57:44.880Z,36.97
2019-01-29T07:00:16.616Z,36.53
2019-01-29T07:02:45.780Z,36.60
2019-01-29T07:05:14.847Z,43.70
2019-01-29T07:07:43.901Z,37.57
2019-01-29T07:10:14.097Z,40.53
2019-01-29T07:12:43.123Z,42.23
2019-01-29T07:15:33.958Z,43.10
2019-01-29T07:18:03.759Z,41.57
2019-01-29T07:20:32.699Z,39.33
2019-01-29T07:23:01.768Z,36.57
2019-01-29T07:25:30.760Z,40.77
2019-01-29T07:27:59.839Z,39.10
2019-01-29T07:30:28.807Z,44.77
2019-01-29T07:32:58.025Z,39.53
2019-01-29T07:35:26.950Z,38.60
2019-01-29T07:37:55.990Z,42.47
2019-01-29T07:40:24.981Z,38.07
2019-01-29T07:42:54.009Z,39.87
2019-01-29T07:45:23.250Z,36.60
2019-01-29T07:47:52.455Z,42.47
2019-01-29T07:50:21.611Z,42.60
2019-01-29T07:52:50.712Z,39.77
2019-01-29T07:55:19.726Z,40.67
2019-01-29T07:57:48.868Z,40.53
2019-01-29T08:00:17.912Z,34.10
2019-01-29T08:02:47.142Z,37.00
2019-01-29T08:05:16.164Z,33.20
2019-01-29T08:07:45.370Z,30.33
2019-01-29T08:10:14.345Z,34.77
2019-01-29T08:12:43.368Z,34.20
2019-01-29T08:15:12.544Z,35.70
2019-01-29T08:17:41.530Z,37.77
2019-01-29T08:20:10.853Z,36.60
2019-01-29T08:22:39.903Z,32.33
2019-01-29T08:25:09.187Z,35.43
2019-01-29T08:27:38.165Z,23.33
2019-01-29T08:30:07.815Z,31.07
2019-01-29T08:32:36.920Z,29.07
2019-01-29T08:35:25.213Z,31.37
2019-01-29T08:37:54.256Z,25.27
2019-01-29T08:40:23.442Z,27.60
2019-01-29T08:42:52.495Z,25.83
2019-01-29T08:45:21.432Z,19.10
2019-01-29T08:47:50.375Z,23.50
2019-01-29T08:50:21.269Z,15.40
2019-01-29T08:52:50.368Z,24.93
2019-01-29T08:55:19.474Z,19.23
2019-01-29T08:57:48.648Z,22.83
2019-01-29T09:00:17.936Z,21.37
2019-01-29T09:02:47.988Z,19.00
2019-01-29T09:05:17.339Z,23.00
2019-01-29T09:07:46.410Z,22.00
2019-01-29T09:10:16.179Z,25.07
2019-01-29T09:12:45.270Z,17.47
2019-01-29T09:15:15.632Z,19.93
2019-01-29T09:17:44.726Z,18.70
2019-01-29T09:20:14.836Z,21.93
2019-01-29T09:22:43.790Z,19.13
2019-01-29T09:25:32.090Z,18.03
2019-01-29T09:28:01.205Z,18.97
2019-01-29T09:30:30.316Z,17.43
2019-01-29T09:33:00.226Z,17.07
2019-01-29T09:35:29.246Z,17.33
2019-01-29T09:37:58.275Z,16.50
2019-01-29T09:40:27.368Z,15.47
2019-01-29T09:42:56.387Z,16.07
2019-01-29T09:45:25.331Z,17.33
2019-01-29T09:47:54.422Z,18.07
2019-01-29T09:50:23.544Z,13.40
2019-01-29T09:52:52.535Z,15.27
2019-01-29T09:55:29.043Z,16.47
2019-01-29T09:57:52.558Z,17.60
2019-01-29T10:00:29.769Z,16.60
2019-01-29T10:02:58.805Z,18.90
2019-01-29T10:05:27.906Z,19.53
2019-01-29T10:07:56.946Z,15.10
2019-01-29T10:10:25.974Z,13.47
2019-01-29T10:12:54.973Z,13.73
2019-01-29T10:15:26.642Z,18.87
2019-01-29T10:17:55.722Z,10.73
2019-01-29T10:20:24.662Z,12.63
2019-01-29T10:22:53.787Z,15.73
2019-01-29T10:25:23.973Z,11.23
2019-01-29T10:27:53.011Z,13.03
2019-01-29T10:30:22.668Z,13.87
2019-01-29T10:32:51.721Z,11.57
2019-01-29T10:35:21.163Z,13.27
2019-01-29T10:37:50.479Z,12.07
2019-01-29T10:40:20.993Z,10.57
2019-01-29T10:42:49.917Z,13.57
2019-01-29T10:45:19.942Z,9.50
2019-01-29T10:47:48.983Z,11.47
2019-01-29T10:50:20.092Z,11.23
2019-01-29T10:52:49.633Z,8.90
2019-01-29T10:55:18.704Z,10.67
2019-01-29T10:57:47.642Z,12.87
2019-01-29T11:00:25.400Z,9.07
2019-01-29T11:02:54.416Z,6.30
2019-01-29T11:05:23.546Z,8.20
2019-01-29T11:07:52.655Z,7.20
2019-01-29T11:10:21.776Z,10.30
2019-01-29T11:12:50.984Z,8.43
2019-01-29T11:15:25.422Z,11.30
2019-01-29T11:17:54.515Z,10.23
2019-01-29T11:20:23.604Z,8.17
2019-01-29T11:22:52.782Z,9.97
2019-01-29T11:25:23.824Z,9.57
2019-01-29T11:27:52.842Z,8.13
2019-01-29T11:30:26.892Z,8.10
2019-01-29T11:32:56.056Z,9.00
2019-01-29T11:35:25.087Z,13.57
2019-01-29T11:37:54.147Z,8.80
2019-01-29T11:40:24.765Z,14.43
2019-01-29T11:42:53.865Z,5.97
2019-01-29T11:45:28.157Z,10.10
2019-01-29T11:47:57.103Z,14.13
2019-01-29T11:50:26.190Z,13.20
2019-01-29T11:52:55.416Z,10.23
2019-01-29T11:55:24.495Z,8.07
2019-01-29T11:57:53.526Z,12.60
2019-01-29T12:00:34.897Z,8.03
2019-01-29T12:03:03.985Z,7.33
2019-01-29T12:05:32.957Z,7.47
2019-01-29T12:08:01.978Z,8.30
2019-01-29T12:10:30.980Z,7.57
2019-01-29T12:13:00.102Z,8.17
2019-01-29T12:15:29.938Z,9.73
2019-01-29T12:17:59.238Z,10.07
2019-01-29T12:20:28.193Z,6.13
2019-01-29T12:22:57.199Z,11.13
2019-01-29T12:25:26.233Z,7.53
2019-01-29T12:28:14.457Z,8.30
2019-01-29T12:30:43.524Z,8.77
2019-01-29T12:33:12.535Z,7.57
2019-01-29T12:35:41.605Z,12.43
2019-01-29T12:38:10.678Z,15.00
2019-01-29T12:40:39.730Z,10.27
2019-01-29T12:43:08.734Z,8.23
2019-01-29T12:45:37.877Z,8.90
2019-01-29T12:48:07.022Z,10.40
2019-01-29T12:50:36.676Z,7.80
2019-01-29T12:53:07.881Z,13.70
2019-01-29T12:55:37.370Z,8.47
2019-01-29T12:58:06.970Z,8.53
2019-01-29T13:00:56.419Z,7.87
2019-01-29T13:03:25.419Z,11.80
2019-01-29T13:05:54.434Z,11.83
2019-01-29T13:08:23.625Z,5.40
2019-01-29T13:10:52.630Z,7.53
2019-01-29T13:13:21.551Z,14.67
2019-01-29T13:15:50.571Z,7.33
2019-01-29T13:18:19.533Z,7.53
2019-01-29T13:20:48.497Z,7.07
2019-01-29T13:23:18.053Z,10.10
2019-01-29T13:25:47.183Z,7.97
2019-01-29T13:28:16.255Z,7.30
2019-01-29T13:30:45.299Z,7.37
2019-01-29T13:33:15.445Z,10.67
2019-01-29T13:35:44.915Z,6.67
2019-01-29T13:38:14.202Z,6.63
2019-01-29T13:40:43.191Z,4.43
2019-01-29T13:43:12.292Z,7.87
2019-01-29T13:45:41.337Z,9.00
2019-01-29T13:48:10.345Z,6.47
2019-01-29T13:50:45.259Z,5.70
2019-01-29T13:53:14.778Z,7.13
2019-01-29T13:55:43.762Z,6.50
2019-01-29T13:58:12.803Z,11.83
2019-01-29T14:00:44.976Z,7.40
2019-01-29T14:03:14.006Z,7.20
2019-01-29T14:05:43.052Z,4.70
2019-01-29T14:08:12.068Z,9.43
2019-01-29T14:10:41.166Z,6.63
2019-01-29T14:13:10.221Z,11.33
2019-01-29T14:16:07.490Z,5.60
2019-01-29T14:18:36.450Z,6.63
2019-01-29T14:21:05.374Z,8.50
2019-01-29T14:23:34.382Z,6.77
2019-01-29T14:26:03.506Z,6.90
2019-01-29T14:28:32.440Z,9.40
2019-01-29T14:31:01.521Z,7.03
2019-01-29T14:33:30.672Z,6.00
2019-01-29T14:35:59.634Z,7.37
2019-01-29T14:38:59.263Z,9.07
2019-01-29T14:41:28.272Z,7.37
2019-01-29T14:43:59.097Z,9.23
2019-01-29T14:46:27.973Z,6.20
2019-01-29T14:48:57.005Z,11.43
2019-01-29T14:51:26.011Z,9.30
2019-01-29T14:53:55.469Z,12.20
2019-01-29T14:56:24.529Z,7.83
2019-01-29T14:58:53.515Z,8.43
2019-01-29T15:01:22.545Z,8.47
2019-01-29T15:03:51.526Z,6.83
2019-01-29T15:06:20.590Z,8.30
2019-01-29T15:08:49.659Z,11.03
2019-01-29T15:11:18.754Z,7.53
2019-01-29T15:13:47.757Z,8.93
2019-01-29T15:16:36.911Z,6.57
2019-01-29T15:19:09.323Z,6.23
2019-01-29T15:21:38.520Z,7.93
2019-01-29T15:24:26.697Z,11.23
2019-01-29T15:26:56.023Z,9.80
2019-01-29T15:29:25.190Z,7.63
2019-01-29T15:31:54.070Z,8.43
2019-01-29T15:34:23.188Z,7.27
2019-01-29T15:36:52.199Z,8.67
2019-01-29T15:39:21.246Z,10.73
2019-01-29T15:41:50.304Z,8.17
2019-01-29T15:44:19.382Z,7.77
2019-01-29T15:46:48.427Z,5.93
2019-01-29T15:49:17.446Z,13.47
2019-01-29T15:51:46.462Z,7.00
2019-01-29T15:54:15.484Z,7.87
2019-01-29T15:56:44.684Z,7.17
2019-01-29T15:59:14.755Z,7.07
2019-01-29T16:01:43.818Z,9.20
2019-01-29T16:04:12.861Z,7.37
2019-01-29T16:06:41.976Z,11.70
2019-01-29T16:09:10.992Z,5.20
2019-01-29T16:11:40.005Z,9.23
2019-01-29T16:14:09.019Z,8.90
2019-01-29T16:16:38.071Z,5.10
2019-01-29T16:19:07.089Z,7.63
2019-01-29T16:21:36.131Z,6.60
2019-01-29T16:24:05.487Z,11.97
2019-01-29T16:26:34.625Z,8.60
2019-01-29T16:29:03.737Z,10.57
2019-01-29T16:31:32.861Z,6.73
2019-01-29T16:34:01.994Z,7.13
2019-01-29T16:36:31.025Z,9.23
2019-01-29T16:38:59.957Z,10.63
2019-01-29T16:41:28.955Z,9.60
2019-01-29T16:43:58.108Z,9.90
2019-01-29T16:46:27.129Z,7.83
2019-01-29T16:48:56.292Z,12.10
2019-01-29T16:51:44.528Z,9.10
2019-01-29T16:54:13.627Z,12.40
2019-01-29T16:56:42.731Z,10.47
2019-01-29T16:59:11.703Z,5.63
2019-01-29T17:01:40.766Z,10.70
2019-01-29T17:04:10.183Z,11.90
2019-01-29T17:06:39.237Z,7.90
2019-01-29T17:09:10.696Z,12.93
2019-01-29T17:11:39.636Z,9.50
2019-01-29T17:14:08.645Z,9.33
2019-01-29T17:16:37.759Z,8.53
2019-01-29T17:19:06.930Z,10.70
2019-01-29T17:21:35.982Z,11.40
2019-01-29T17:24:05.260Z,9.83
2019-01-29T17:26:34.379Z,9.10
2019-01-29T17:29:03.543Z,10.80
2019-01-29T17:31:32.708Z,9.73
2019-01-29T17:34:04.550Z,9.57
2019-01-29T17:36:33.879Z,9.57
2019-01-29T17:39:03.481Z,7.37
2019-01-29T17:41:32.685Z,5.83
2019-01-29T17:44:01.867Z,8.13
2019-01-29T17:46:31.266Z,9.23
2019-01-29T17:49:00.613Z,14.73
2019-01-29T17:51:29.793Z,8.90
2019-01-29T17:53:59.125Z,8.60
2019-01-29T17:56:29.849Z,11.57
2019-01-29T17:58:59.013Z,7.23
2019-01-29T18:01:28.327Z,8.43
2019-01-29T18:03:57.487Z,10.37
2019-01-29T18:06:29.484Z,11.10
2019-01-29T18:08:59.007Z,9.73
2019-01-29T18:11:28.271Z,9.43
2019-01-29T18:13:59.193Z,10.13
2019-01-29T18:16:28.590Z,10.93
2019-01-29T18:18:57.912Z,11.87
2019-01-29T18:21:27.094Z,10.00
2019-01-29T18:23:56.328Z,11.80
2019-01-29T18:26:25.563Z,9.10
2019-01-29T18:28:54.721Z,9.87
2019-01-29T18:31:24.024Z,11.00
2019-01-29T18:33:56.159Z,12.87
2019-01-29T18:36:24.284Z,8.13
2019-01-29T18:38:53.438Z,8.63
2019-01-29T18:41:22.587Z,7.00
2019-01-29T18:43:51.720Z,10.00
2019-01-29T18:46:20.974Z,6.50
2019-01-29T18:48:54.153Z,9.33
2019-01-29T18:51:23.312Z,7.57
2019-01-29T18:53:52.306Z,7.87
2019-01-29T18:56:23.836Z,7.87
2019-01-29T18:58:53.006Z,7.53
2019-01-29T19:01:22.180Z,6.90
2019-01-29T19:03:51.630Z,8.00
2019-01-29T19:06:21.963Z,7.77
2019-01-29T19:08:51.061Z,6.60
2019-01-29T19:11:20.225Z,8.03
2019-01-29T19:13:49.463Z,6.73
2019-01-29T19:16:18.554Z,9.87
2019-01-29T19:18:47.837Z,8.00
2019-01-29T19:21:17.031Z,6.43
2019-01-29T19:23:46.289Z,8.43
2019-01-29T19:26:22.177Z,8.43
2019-01-29T19:28:51.944Z,9.93
2019-01-29T19:31:20.995Z,12.30
2019-01-29T19:33:50.038Z,6.57
2019-01-29T19:36:21.905Z,8.50
2019-01-29T19:42:01.801Z,8.17
2019-01-29T19:44:30.989Z,8.73
2019-01-29T19:47:00.283Z,8.17
2019-01-29T19:49:29.494Z,8.47
2019-01-29T19:51:58.654Z,9.37
2019-01-29T19:54:27.841Z,7.23
2019-01-29T19:56:59.758Z,8.63
2019-01-29T19:59:28.892Z,10.53
2019-01-29T20:01:58.030Z,11.07
2019-01-29T20:04:27.134Z,6.70
2019-01-29T20:06:56.253Z,8.77
2019-01-29T20:09:25.344Z,10.97
2019-01-29T20:11:54.597Z,8.17
2019-01-29T20:14:23.707Z,8.63
2019-01-29T20:16:52.898Z,9.13
2019-01-29T20:19:22.034Z,7.03
2019-01-29T20:21:51.190Z,9.90
2019-01-29T20:24:20.408Z,6.07
2019-01-29T20:26:49.645Z,8.70
2019-01-29T20:29:24.244Z,10.87
2019-01-29T20:31:55.714Z,6.40
2019-01-29T20:34:27.667Z,7.70
2019-01-29T20:36:56.695Z,8.67
2019-01-29T20:39:34.683Z,10.93
2019-01-29T20:41:56.575Z,10.13
2019-01-29T20:47:29.124Z,8.17
2019-01-29T20:49:58.283Z,8.50
2019-01-29T20:52:27.439Z,10.10
2019-01-29T20:54:58.765Z,6.87
2019-01-29T20:57:27.962Z,8.90
2019-01-29T20:59:58.299Z,9.13
2019-01-29T21:02:27.523Z,9.03
2019-01-29T21:04:56.701Z,6.13
2019-01-29T21:07:26.055Z,8.60
2019-01-29T21:09:55.123Z,9.40
2019-01-29T21:12:24.279Z,6.77
2019-01-29T21:14:53.449Z,9.83
2019-01-29T21:17:22.641Z,14.27
2019-01-29T21:19:51.728Z,12.37
2019-01-29T21:22:20.844Z,11.87
2019-01-29T21:24:49.937Z,9.83
2019-01-29T21:27:19.072Z,13.47
2019-01-29T21:29:48.223Z,10.40
2019-01-29T21:32:17.287Z,10.93
2019-01-29T21:34:46.341Z,8.30
2019-01-29T21:37:15.584Z,10.10
2019-01-29T21:39:44.778Z,10.27
2019-01-29T21:42:13.860Z,9.70
2019-01-29T21:44:43.160Z,10.57
2019-01-29T21:47:12.290Z,11.67
2019-01-29T21:49:41.556Z,9.87
2019-01-29T21:52:13.154Z,9.00
2019-01-29T21:54:44.965Z,10.93
2019-01-29T21:57:20.722Z,8.23
2019-01-29T21:59:49.960Z,10.63
2019-01-29T22:02:19.024Z,8.53
2019-01-29T22:04:48.184Z,8.93
2019-01-29T22:07:19.542Z,9.63
2019-01-29T22:09:48.645Z,6.20
2019-01-29T22:12:17.827Z,8.77
2019-01-29T22:14:46.923Z,10.73
2019-01-29T22:17:15.956Z,11.90
2019-01-29T22:19:46.652Z,10.10
2019-01-29T22:22:15.824Z,9.30
2019-01-29T22:24:44.911Z,8.67
2019-01-29T22:27:14.135Z,14.37
2019-01-29T22:29:43.233Z,11.13
2019-01-29T22:32:12.277Z,9.70
2019-01-29T22:34:41.503Z,10.80
2019-01-29T22:37:12.666Z,11.73
2019-01-29T22:39:42.715Z,7.67
2019-01-29T22:42:14.547Z,9.33
2019-01-29T22:44:43.679Z,4.90
2019-01-29T22:47:12.994Z,7.80
2019-01-29T22:49:42.088Z,7.03
2019-01-29T22:52:11.172Z,10.83
2019-01-29T22:54:40.149Z,8.03
2019-01-29T22:57:09.211Z,7.77
2019-01-29T22:59:38.229Z,10.37
2019-01-29T23:02:07.464Z,11.73
2019-01-29T23:04:43.720Z,7.73
2019-01-29T23:07:18.644Z,15.73
2019-01-29T23:09:47.878Z,9.27
2019-01-29T23:12:17.126Z,12.33
2019-01-29T23:14:46.313Z,10.27
2019-01-29T23:17:15.558Z,12.40
2019-01-29T23:19:44.532Z,11.37
2019-01-29T23:22:13.593Z,10.03
2019-01-29T23:24:42.632Z,9.13
2019-01-29T23:27:11.836Z,11.13
2019-01-29T23:29:43.708Z,11.37
2019-01-29T23:32:30.774Z,10.23
2019-01-29T23:34:59.929Z,11.87
2019-01-29T23:37:29.043Z,11.73
2019-01-29T23:39:58.115Z,9.13
2019-01-29T23:42:30.178Z,9.30
2019-01-29T23:44:59.395Z,11.60
2019-01-29T23:47:28.515Z,9.03
2019-01-29T23:49:57.659Z,11.43
2019-01-29T23:52:26.609Z,8.93
2019-01-29T23:54:55.626Z,8.07
2019-01-29T23:57:24.743Z,11.07
2019-01-29T23:59:54.188Z,9.73
